CheckWX is a tool to help pilots better visualize weather data.  It is not intended as a substitute for an official pre-flight weather briefing.

02:04:31 UTC

KBTR TAF
Baton Rouge Metropolitan Airport Airport
Baton Rouge, Louisiana, USA
KBTR 100520Z 1006/1106 22011KT P6SM SKC FM100900 VRB03KT P6SM SCT020 FM101500 VRB03KT P6SM FEW250

Jul-10@
06:00 UTC

Jul-10 @ 06:00 UTC

Jul-10@
09:00 UTC

Jul-10 @ 09:00 UTC

TAF KBTR 100520Z 1006/1106 22011KT P6SM SKC

Expired

Wind
  • 220° at 11 KTS
Cloud Levels
  • Clear skies

Jul-10@
09:00 UTC

Jul-10 @ 09:00 UTC

Jul-10@
15:00 UTC

Jul-10 @ 15:00 UTC

FM100900 VRB03KT P6SM SCT020

Expired

Wind
  • Variable at 3 KTS
Cloud Levels
  • Scattered at 2,000' AGL

Jul-10@
15:00 UTC

Jul-10 @ 15:00 UTC

Jul-11@
06:00 UTC

Jul-11 @ 06:00 UTC

FM101500 VRB03KT P6SM FEW250

From

From Standard forecast or significant change

Wind
  • Variable at 3 KTS
Cloud Levels
  • Few at 25,000' AGL